sensor_id;sensor_type;location;lat;lon;timestamp;pressure;altitude;pressure_sealevel;temperature
61189;BMP280;47054;39.716;2.904;2023-07-24T00:03:59;99708.97;;;31.43
61189;BMP280;47054;39.716;2.904;2023-07-24T00:11:44;99699.50;;;31.44
61189;BMP280;47054;39.716;2.904;2023-07-24T00:14:29;99694.97;;;31.41
61189;BMP280;47054;39.716;2.904;2023-07-24T00:17:14;99686.00;;;31.40
61189;BMP280;47054;39.716;2.904;2023-07-24T00:19:59;99675.03;;;31.40
61189;BMP280;47054;39.716;2.904;2023-07-24T00:22:43;99688.28;;;31.42
61189;BMP280;47054;39.716;2.904;2023-07-24T00:25:28;99668.34;;;31.41
61189;BMP280;47054;39.716;2.904;2023-07-24T00:28:12;99655.66;;;31.44
61189;BMP280;47054;39.716;2.904;2023-07-24T00:30:57;99643.72;;;31.47
61189;BMP280;47054;39.716;2.904;2023-07-24T00:33:41;99635.03;;;31.48
61189;BMP280;47054;39.716;2.904;2023-07-24T00:36:26;99641.31;;;31.54
61189;BMP280;47054;39.716;2.904;2023-07-24T00:39:13;99626.16;;;31.59
61189;BMP280;47054;39.716;2.904;2023-07-24T00:42:00;99630.22;;;31.63
61189;BMP280;47054;39.716;2.904;2023-07-24T00:44:49;99638.75;;;31.71
61189;BMP280;47054;39.716;2.904;2023-07-24T00:47:35;99614.59;;;31.75
61189;BMP280;47054;39.716;2.904;2023-07-24T00:50:20;99622.09;;;31.80
61189;BMP280;47054;39.716;2.904;2023-07-24T00:53:05;99618.41;;;31.83
61189;BMP280;47054;39.716;2.904;2023-07-24T00:55:50;99607.22;;;31.86
61189;BMP280;47054;39.716;2.904;2023-07-24T00:58:37;99561.13;;;31.90
61189;BMP280;47054;39.716;2.904;2023-07-24T01:01:23;99580.59;;;31.92
61189;BMP280;47054;39.716;2.904;2023-07-24T01:04:08;99581.63;;;31.95
61189;BMP280;47054;39.716;2.904;2023-07-24T01:06:53;99593.59;;;31.97
61189;BMP280;47054;39.716;2.904;2023-07-24T01:09:39;99578.91;;;32.00
61189;BMP280;47054;39.716;2.904;2023-07-24T01:15:22;99602.41;;;32.12
61189;BMP280;47054;39.716;2.904;2023-07-24T01:18:09;99624.88;;;32.16
61189;BMP280;47054;39.716;2.904;2023-07-24T01:20:57;99618.91;;;32.18
61189;BMP280;47054;39.716;2.904;2023-07-24T01:23:50;99610.16;;;32.19
61189;BMP280;47054;39.716;2.904;2023-07-24T01:26:38;99614.66;;;32.17
61189;BMP280;47054;39.716;2.904;2023-07-24T01:29:23;99614.41;;;32.15
61189;BMP280;47054;39.716;2.904;2023-07-24T01:32:08;99609.91;;;32.12
61189;BMP280;47054;39.716;2.904;2023-07-24T01:34:53;99591.66;;;32.09
61189;BMP280;47054;39.716;2.904;2023-07-24T01:37:38;99589.91;;;32.06
61189;BMP280;47054;39.716;2.904;2023-07-24T01:40:24;99579.91;;;32.03
61189;BMP280;47054;39.716;2.904;2023-07-24T01:43:09;99571.91;;;31.99
61189;BMP280;47054;39.716;2.904;2023-07-24T01:45:54;99545.72;;;31.98
61189;BMP280;47054;39.716;2.904;2023-07-24T01:48:39;99546.97;;;31.97
61189;BMP280;47054;39.716;2.904;2023-07-24T01:51:24;99545.72;;;31.98
61189;BMP280;47054;39.716;2.904;2023-07-24T01:54:08;99548.47;;;31.98
61189;BMP280;47054;39.716;2.904;2023-07-24T01:56:53;99530.69;;;31.88
61189;BMP280;47054;39.716;2.904;2023-07-24T01:59:39;99556.47;;;32.02
61189;BMP280;47054;39.716;2.904;2023-07-24T02:02:24;99548.22;;;32.02
61189;BMP280;47054;39.716;2.904;2023-07-24T02:05:08;99546.97;;;31.97
61189;BMP280;47054;39.716;2.904;2023-07-24T02:07:53;99538.50;;;32.01
61189;BMP280;47054;39.716;2.904;2023-07-24T02:10:38;99539.00;;;31.99
61189;BMP280;47054;39.716;2.904;2023-07-24T02:13:23;99539.53;;;31.98
61189;BMP280;47054;39.716;2.904;2023-07-24T02:16:08;99534.25;;;31.94
61189;BMP280;47054;39.716;2.904;2023-07-24T02:18:53;99541.19;;;31.90
61189;BMP280;47054;39.716;2.904;2023-07-24T19:12:35;99459.91;;;32.51
61189;BMP280;47054;39.716;2.904;2023-07-24T19:15:20;99466.19;;;32.79
61189;BMP280;47054;39.716;2.904;2023-07-24T19:18:05;99483.97;;;33.00
61189;BMP280;47054;39.716;2.904;2023-07-24T19:20:49;99478.69;;;33.02
61189;BMP280;47054;39.716;2.904;2023-07-24T19:23:34;99478.97;;;33.15
61189;BMP280;47054;39.716;2.904;2023-07-24T19:26:19;99479.47;;;33.19
61189;BMP280;47054;39.716;2.904;2023-07-24T19:29:03;99459.50;;;33.19
61189;BMP280;47054;39.716;2.904;2023-07-24T19:31:48;99429.03;;;33.17
61189;BMP280;47054;39.716;2.904;2023-07-24T19:34:33;99351.88;;;33.15
61189;BMP280;47054;39.716;2.904;2023-07-24T19:37:18;99380.09;;;33.10
61189;BMP280;47054;39.716;2.904;2023-07-24T19:40:03;99389.34;;;33.07
61189;BMP280;47054;39.716;2.904;2023-07-24T19:42:48;99441.25;;;33.05
61189;BMP280;47054;39.716;2.904;2023-07-24T19:45:38;99480.22;;;33.03
61189;BMP280;47054;39.716;2.904;2023-07-24T19:48:24;99427.81;;;33.01
61189;BMP280;47054;39.716;2.904;2023-07-24T19:51:09;99443.00;;;33.02
61189;BMP280;47054;39.716;2.904;2023-07-24T19:58:39;99474.22;;;32.99
61189;BMP280;47054;39.716;2.904;2023-07-24T20:06:10;99472.97;;;32.95
61189;BMP280;47054;39.716;2.904;2023-07-24T20:08:55;99444.00;;;32.83
61189;BMP280;47054;39.716;2.904;2023-07-24T20:11:40;99477.44;;;32.92
61189;BMP280;47054;39.716;2.904;2023-07-24T20:14:26;99467.75;;;32.91
61189;BMP280;47054;39.716;2.904;2023-07-24T22:04:54;99554.13;;;32.26
61189;BMP280;47054;39.716;2.904;2023-07-24T22:07:39;99542.41;;;32.25
61189;BMP280;47054;39.716;2.904;2023-07-24T22:10:23;99539.88;;;32.22
61189;BMP280;47054;39.716;2.904;2023-07-24T22:13:08;99552.88;;;32.27
61189;BMP280;47054;39.716;2.904;2023-07-24T22:15:53;99557.13;;;32.28
61189;BMP280;47054;39.716;2.904;2023-07-24T22:18:37;99570.84;;;32.28
61189;BMP280;47054;39.716;2.904;2023-07-24T22:21:22;99583.06;;;32.27
61189;BMP280;47054;39.716;2.904;2023-07-24T22:24:07;99585.03;;;32.21
61189;BMP280;47054;39.716;2.904;2023-07-24T22:26:51;99583.50;;;32.20
61189;BMP280;47054;39.716;2.904;2023-07-24T22:29:36;99586.75;;;32.18
61189;BMP280;47054;39.716;2.904;2023-07-24T22:32:20;99587.97;;;32.17
61189;BMP280;47054;39.716;2.904;2023-07-24T22:35:05;99573.25;;;32.15
61189;BMP280;47054;39.716;2.904;2023-07-24T22:37:50;99586.22;;;32.14
61189;BMP280;47054;39.716;2.904;2023-07-24T22:40:35;99585.69;;;32.10
61189;BMP280;47054;39.716;2.904;2023-07-24T22:43:19;99592.94;;;32.08
61189;BMP280;47054;39.716;2.904;2023-07-24T22:46:04;99599.63;;;32.07
61189;BMP280;47054;39.716;2.904;2023-07-24T22:48:48;99603.34;;;32.04
61189;BMP280;47054;39.716;2.904;2023-07-24T22:51:33;99601.09;;;32.02
61189;BMP280;47054;39.716;2.904;2023-07-24T22:54:17;99596.59;;;31.99
61189;BMP280;47054;39.716;2.904;2023-07-24T22:57:02;99598.09;;;32.00
61189;BMP280;47054;39.716;2.904;2023-07-24T22:59:47;99604.56;;;31.97
61189;BMP280;47054;39.716;2.904;2023-07-24T23:02:32;99602.81;;;31.94
61189;BMP280;47054;39.716;2.904;2023-07-24T23:05:16;99610.28;;;31.94
61189;BMP280;47054;39.716;2.904;2023-07-24T23:08:01;99615.00;;;31.93
61189;BMP280;47054;39.716;2.904;2023-07-24T23:10:47;99612.00;;;31.91
61189;BMP280;47054;39.716;2.904;2023-07-24T23:13:33;99607.75;;;31.90
61189;BMP280;47054;39.716;2.904;2023-07-24T23:16:18;99607.97;;;31.87
61189;BMP280;47054;39.716;2.904;2023-07-24T23:19:03;99599.44;;;31.85
61189;BMP280;47054;39.716;2.904;2023-07-24T23:21:47;99600.47;;;31.82
61189;BMP280;47054;39.716;2.904;2023-07-24T23:24:32;99607.66;;;31.79
61189;BMP280;47054;39.716;2.904;2023-07-24T23:27:17;99611.38;;;31.76
61189;BMP280;47054;39.716;2.904;2023-07-24T23:30:01;99612.34;;;31.73
61189;BMP280;47054;39.716;2.904;2023-07-24T23:32:46;99623.03;;;31.71
61189;BMP280;47054;39.716;2.904;2023-07-24T23:35:33;99620.78;;;31.70
61189;BMP280;47054;39.716;2.904;2023-07-24T23:38:18;99621.47;;;31.65
61189;BMP280;47054;39.716;2.904;2023-07-24T23:41:05;99623.00;;;31.66
61189;BMP280;47054;39.716;2.904;2023-07-24T23:43:50;99631.69;;;31.64
61189;BMP280;47054;39.716;2.904;2023-07-24T23:46:34;99634.19;;;31.62
61189;BMP280;47054;39.716;2.904;2023-07-24T23:49:19;99627.13;;;31.56
61189;BMP280;47054;39.716;2.904;2023-07-24T23:52:03;99630.88;;;31.58
61189;BMP280;47054;39.716;2.904;2023-07-24T23:54:48;99613.44;;;31.56
61189;BMP280;47054;39.716;2.904;2023-07-24T23:57:32;99608.91;;;31.53
